Time;durP1;ratioP1;P1;durP2;ratioP2;P2;SDS_P1;SDS_P2;PMS_P1;PMS_P2;Temp;Humidity;BMP_temperature;BMP_pressure;BME280_temperature;BME280_humidity;BME280_pressure;Samples;Min_cycle;Max_cycle;Signal;HPM_P1;HPM_P2
2021/11/03 00:01:05;;;;;;;0.70;0.50;;;4.80;99.90;;;;;;5051457;28;20425;-69
2021/11/03 00:03:33;;;;;;;0.70;0.50;;;4.90;99.90;;;;;;5051400;28;20432;-69
2021/11/03 00:05:59;;;;;;;0.70;0.50;;;4.90;99.90;;;;;;5051772;28;20879;-69
2021/11/03 00:08:29;;;;;;;0.70;0.60;;;4.90;99.90;;;;;;5052008;28;20496;-69
2021/11/03 00:10:55;;;;;;;0.70;0.60;;;4.80;99.90;;;;;;5051792;28;20450;-69
2021/11/03 00:13:23;;;;;;;0.70;0.50;;;4.80;99.90;;;;;;5051650;28;20417;-69
2021/11/03 00:15:50;;;;;;;0.70;0.50;;;4.80;99.90;;;;;;5051539;28;20432;-69
2021/11/03 00:18:16;;;;;;;0.70;0.50;;;4.80;99.90;;;;;;5051745;28;20468;-69
2021/11/03 00:20:42;;;;;;;0.70;0.50;;;4.80;99.90;;;;;;5051750;28;20451;-69
2021/11/03 00:23:08;;;;;;;0.70;0.50;;;4.80;99.90;;;;;;5051737;28;20421;-69
2021/11/03 00:25:39;;;;;;;0.70;0.50;;;4.70;99.90;;;;;;5051365;28;20461;-69
2021/11/03 00:28:05;;;;;;;0.70;0.50;;;4.70;99.90;;;;;;5051055;28;20268;-69
2021/11/03 00:30:31;;;;;;;0.70;0.50;;;4.70;99.90;;;;;;5051805;28;20895;-69
2021/11/03 00:32:57;;;;;;;0.70;0.40;;;4.70;99.90;;;;;;5051677;28;20253;-69
2021/11/03 00:35:22;;;;;;;0.70;0.50;;;4.70;99.90;;;;;;5051112;28;20508;-69
2021/11/03 00:37:48;;;;;;;0.70;0.50;;;4.80;99.90;;;;;;5051590;28;20195;-69
2021/11/03 00:40:14;;;;;;;0.70;0.50;;;4.80;99.90;;;;;;5051574;28;20605;-70
2021/11/03 00:42:39;;;;;;;0.70;0.50;;;4.80;99.90;;;;;;5051393;28;20187;-69
2021/11/03 00:45:06;;;;;;;0.70;0.50;;;4.80;99.90;;;;;;5051254;28;20213;-69
2021/11/03 00:47:32;;;;;;;0.70;0.50;;;4.70;99.90;;;;;;5051598;28;20248;-69
2021/11/03 00:49:57;;;;;;;0.70;0.50;;;4.80;99.90;;;;;;5051370;28;20890;-69
2021/11/03 00:52:23;;;;;;;0.70;0.50;;;4.80;99.90;;;;;;5051615;28;20179;-70
2021/11/03 00:54:48;;;;;;;0.70;0.50;;;4.70;99.90;;;;;;5051036;28;20636;-70
2021/11/03 00:57:15;;;;;;;0.70;0.50;;;4.70;99.90;;;;;;5051625;28;20214;-69
2021/11/03 00:59:40;;;;;;;0.90;0.80;;;4.80;99.90;;;;;;5051916;28;20536;-69
2021/11/03 01:02:06;;;;;;;0.70;0.50;;;4.90;99.90;;;;;;5051182;28;20443;-69
2021/11/03 01:04:31;;;;;;;0.70;0.60;;;4.90;99.90;;;;;;5051485;28;20179;-70
2021/11/03 01:06:57;;;;;;;0.70;0.50;;;5.00;99.90;;;;;;5051058;28;20254;-70
2021/11/03 01:09:22;;;;;;;0.70;0.50;;;5.10;99.90;;;;;;5051280;28;20273;-70
2021/11/03 01:11:49;;;;;;;0.70;0.63;;;5.10;99.90;;;;;;5050880;28;20229;-69
2021/11/03 01:14:15;;;;;;;0.70;0.50;;;5.10;99.90;;;;;;5055078;28;20187;-69
2021/11/03 01:16:41;;;;;;;0.70;0.50;;;5.10;99.90;;;;;;5054976;28;20534;-69
2021/11/03 01:19:06;;;;;;;0.70;0.50;;;5.10;99.90;;;;;;5055335;28;20175;-70
2021/11/03 01:21:34;;;;;;;0.70;0.50;;;5.10;99.90;;;;;;5055010;28;20183;-70
2021/11/03 01:23:59;;;;;;;0.80;0.70;;;5.10;99.90;;;;;;5054595;28;20178;-70
2021/11/03 01:26:25;;;;;;;0.70;0.50;;;5.20;99.90;;;;;;5054267;28;20452;-70
2021/11/03 01:28:51;;;;;;;0.70;0.50;;;5.20;99.90;;;;;;5054706;28;20175;-70
2021/11/03 01:31:17;;;;;;;0.70;0.50;;;5.20;99.90;;;;;;5054943;28;20190;-69
2021/11/03 01:33:42;;;;;;;1.33;1.23;;;5.20;99.90;;;;;;5054911;28;20309;-70
2021/11/03 01:36:09;;;;;;;0.80;0.70;;;5.20;99.90;;;;;;5054251;28;20841;-69
2021/11/03 01:38:35;;;;;;;0.70;0.50;;;5.20;99.90;;;;;;5054386;28;20198;-70
2021/11/03 01:41:01;;;;;;;0.70;0.50;;;5.20;99.90;;;;;;5054809;28;20421;-70
2021/11/03 01:43:39;;;;;;;0.70;0.50;;;5.20;99.90;;;;;;5054829;28;20420;-70
2021/11/03 01:46:31;;;;;;;0.70;0.50;;;5.20;99.90;;;;;;5054531;28;20191;-70
2021/11/03 01:49:00;;;;;;;0.70;0.60;;;5.10;99.90;;;;;;5054395;28;20475;-70
2021/11/03 01:51:32;;;;;;;0.70;0.50;;;5.10;99.90;;;;;;5054628;28;20417;-70
2021/11/03 01:54:00;;;;;;;0.70;0.50;;;5.20;99.90;;;;;;5055260;28;20948;-70
2021/11/03 01:56:27;;;;;;;1.17;1.17;;;5.10;99.90;;;;;;5054623;28;21258;-70
2021/11/03 01:58:58;;;;;;;1.10;0.90;;;5.10;99.90;;;;;;5054824;28;20773;-69
2021/11/03 02:01:24;;;;;;;0.70;0.50;;;5.10;99.90;;;;;;5054247;28;20424;-69
2021/11/03 02:03:51;;;;;;;0.70;0.50;;;5.00;99.90;;;;;;5054183;28;20421;-69
2021/11/03 02:06:20;;;;;;;1.27;0.60;;;5.00;99.90;;;;;;5053831;28;20457;-69
2021/11/03 02:08:47;;;;;;;0.70;0.47;;;5.00;99.90;;;;;;5054340;28;20495;-69
2021/11/03 02:11:14;;;;;;;0.80;0.70;;;5.00;99.90;;;;;;5052678;28;20421;-69
2021/11/03 02:13:42;;;;;;;1.13;0.70;;;4.90;99.90;;;;;;5054188;28;20508;-69
2021/11/03 02:16:11;;;;;;;0.73;0.57;;;4.90;99.90;;;;;;5053492;28;20417;-69
2021/11/03 02:18:38;;;;;;;0.70;0.40;;;5.00;99.90;;;;;;5053810;28;20444;-69
2021/11/03 02:21:06;;;;;;;0.70;0.50;;;4.90;99.90;;;;;;5053954;28;20409;-69
2021/11/03 02:24:12;;;;;;;0.70;0.50;;;4.90;99.90;;;;;;5053107;28;20425;-69
2021/11/03 02:26:43;;;;;;;0.70;0.50;;;5.00;99.90;;;;;;5023129;28;20460;-69
2021/11/03 02:29:11;;;;;;;0.70;0.40;;;5.00;99.90;;;;;;5053686;28;20846;-69
2021/11/03 02:31:58;;;;;;;0.70;0.50;;;5.00;99.90;;;;;;5053488;28;20421;-69
2021/11/03 02:34:28;;;;;;;0.70;0.60;;;5.00;99.90;;;;;;5052599;28;22169;-69
2021/11/03 02:36:58;;;;;;;0.70;0.40;;;4.90;99.90;;;;;;5052960;28;20633;-69
2021/11/03 02:39:44;;;;;;;0.70;0.50;;;4.90;99.90;;;;;;5053406;28;20576;-69
2021/11/03 02:42:13;;;;;;;0.70;0.50;;;4.90;99.90;;;;;;5039228;28;20428;-69
2021/11/03 02:44:41;;;;;;;2.00;0.83;;;5.00;99.90;;;;;;5052089;28;21021;-69
2021/11/03 02:47:07;;;;;;;0.70;0.50;;;4.90;99.90;;;;;;5052854;28;20969;-69
2021/11/03 02:49:35;;;;;;;0.70;0.50;;;5.00;99.90;;;;;;5053161;28;20424;-69
2021/11/03 02:52:01;;;;;;;0.70;0.50;;;4.90;99.90;;;;;;5053485;28;20197;-69
2021/11/03 02:54:27;;;;;;;0.70;0.50;;;4.90;99.90;;;;;;5053090;28;20417;-69
2021/11/03 02:56:54;;;;;;;0.70;0.67;;;5.00;99.90;;;;;;5052784;28;20210;-69
2021/11/03 02:59:28;;;;;;;0.70;0.50;;;5.00;99.90;;;;;;5051690;28;20182;-69
2021/11/03 03:01:58;;;;;;;0.70;0.40;;;5.00;99.90;;;;;;5053363;28;20436;-69
2021/11/03 03:04:33;;;;;;;1.10;0.80;;;5.00;99.90;;;;;;5053341;28;20414;-69
2021/11/03 03:06:58;;;;;;;0.70;0.50;;;5.00;99.90;;;;;;5052398;28;20459;-70
2021/11/03 03:09:25;;;;;;;0.70;0.50;;;5.00;99.90;;;;;;5052930;28;20414;-70
2021/11/03 03:11:56;;;;;;;1.63;1.30;;;5.00;99.90;;;;;;5052795;28;20174;-70
2021/11/03 03:14:25;;;;;;;0.70;0.50;;;5.00;99.90;;;;;;5053115;28;20414;-69
2021/11/03 03:16:50;;;;;;;1.10;0.87;;;4.90;99.90;;;;;;5052367;28;20476;-69
2021/11/03 03:19:16;;;;;;;0.70;0.50;;;5.00;99.90;;;;;;5052975;28;20461;-69
2021/11/03 03:21:42;;;;;;;0.90;0.70;;;5.00;99.90;;;;;;5052383;28;20174;-69
2021/11/03 03:24:10;;;;;;;0.70;0.50;;;5.00;99.90;;;;;;5052916;28;20428;-69
2021/11/03 03:26:37;;;;;;;0.70;0.50;;;5.00;99.90;;;;;;5052198;28;20214;-69
2021/11/03 03:29:03;;;;;;;1.20;0.90;;;5.10;99.90;;;;;;5052580;28;20413;-69
2021/11/03 03:31:30;;;;;;;0.70;0.50;;;5.20;99.90;;;;;;5052624;28;20417;-69
2021/11/03 03:34:00;;;;;;;6.73;1.00;;;5.20;99.90;;;;;;5052515;28;20413;-70
2021/11/03 03:36:27;;;;;;;0.80;0.80;;;5.20;99.90;;;;;;5040079;28;20948;-69
2021/11/03 03:38:53;;;;;;;0.70;0.60;;;5.20;99.90;;;;;;5051146;28;20421;-70
2021/11/03 03:41:21;;;;;;;0.70;0.50;;;5.20;99.90;;;;;;5052562;28;20449;-69
2021/11/03 03:43:47;;;;;;;0.70;0.60;;;5.20;99.90;;;;;;5052288;28;20421;-69
2021/11/03 03:46:13;;;;;;;0.70;0.50;;;5.20;99.90;;;;;;5052056;28;20449;-69
2021/11/03 03:48:39;;;;;;;0.70;0.50;;;5.20;99.90;;;;;;5052339;28;20206;-69
2021/11/03 03:51:07;;;;;;;0.70;0.50;;;5.20;99.90;;;;;;5052272;28;20475;-69
2021/11/03 03:53:34;;;;;;;0.70;0.50;;;5.20;99.90;;;;;;5050539;28;20413;-69
2021/11/03 03:55:59;;;;;;;0.80;0.50;;;5.30;99.90;;;;;;5052115;28;20409;-69
2021/11/03 03:58:25;;;;;;;0.70;0.50;;;5.30;99.90;;;;;;5052106;28;20506;-69
2021/11/03 04:00:50;;;;;;;0.70;0.50;;;5.20;99.90;;;;;;5052142;28;20535;-69
2021/11/03 04:03:17;;;;;;;0.70;0.40;;;5.30;99.90;;;;;;5052228;28;20640;-69
2021/11/03 04:05:44;;;;;;;0.70;0.50;;;5.40;99.90;;;;;;5051580;28;20305;-69
2021/11/03 04:08:14;;;;;;;0.70;0.50;;;5.40;99.90;;;;;;5051603;28;20429;-69
2021/11/03 04:10:43;;;;;;;0.70;0.50;;;5.50;99.90;;;;;;5051669;28;20452;-69
2021/11/03 04:13:10;;;;;;;1.27;0.70;;;5.50;99.90;;;;;;5048746;28;20509;-69
2021/11/03 04:15:36;;;;;;;0.70;0.50;;;5.50;99.90;;;;;;5050146;28;20440;-69
2021/11/03 04:18:02;;;;;;;0.70;0.50;;;5.50;99.90;;;;;;5049746;28;20449;-69
2021/11/03 04:20:27;;;;;;;1.57;0.90;;;5.60;99.90;;;;;;5051909;28;20201;-69
2021/11/03 04:22:53;;;;;;;0.70;0.50;;;5.60;99.90;;;;;;5050807;28;20433;-69
2021/11/03 04:25:19;;;;;;;0.70;0.50;;;5.70;99.90;;;;;;5050861;28;20202;-69
2021/11/03 04:27:45;;;;;;;1.10;0.97;;;5.70;99.90;;;;;;5050950;28;20202;-69
2021/11/03 04:30:15;;;;;;;0.70;0.50;;;5.70;99.90;;;;;;5049602;28;20429;-69
2021/11/03 04:32:41;;;;;;;0.70;0.50;;;5.80;99.90;;;;;;5051659;28;20482;-69
2021/11/03 04:35:08;;;;;;;6.10;2.10;;;5.80;99.90;;;;;;5054146;28;20418;-69
2021/11/03 04:37:34;;;;;;;0.80;0.60;;;5.80;99.90;;;;;;5048235;28;20658;-69
2021/11/03 04:39:59;;;;;;;0.70;0.50;;;5.70;99.90;;;;;;5050438;28;20436;-69
2021/11/03 04:42:25;;;;;;;0.70;0.50;;;5.80;99.90;;;;;;5050874;28;20258;-69
2021/11/03 04:44:51;;;;;;;0.70;0.50;;;5.80;99.90;;;;;;5048976;28;20660;-70
2021/11/03 04:47:16;;;;;;;0.70;0.50;;;5.80;99.90;;;;;;5050622;28;20362;-70
2021/11/03 04:49:42;;;;;;;0.70;0.47;;;5.90;99.90;;;;;;5055195;28;20487;-69
2021/11/03 04:52:08;;;;;;;0.70;0.50;;;5.90;99.90;;;;;;5054367;28;20179;-70
2021/11/03 04:54:34;;;;;;;2.37;2.13;;;5.90;99.90;;;;;;5054630;28;20568;-69
2021/11/03 04:57:00;;;;;;;3.93;2.60;;;6.00;99.90;;;;;;5054649;28;20456;-70
2021/11/03 04:59:25;;;;;;;0.70;0.50;;;6.00;99.90;;;;;;5055556;28;20179;-69
2021/11/03 05:01:51;;;;;;;0.70;0.50;;;6.00;99.90;;;;;;5054275;28;20179;-69
2021/11/03 05:04:17;;;;;;;0.70;0.50;;;6.10;99.90;;;;;;5055478;28;20298;-69
2021/11/03 05:06:48;;;;;;;0.70;0.50;;;6.10;99.90;;;;;;5051991;28;20508;-69
2021/11/03 05:09:16;;;;;;;1.67;1.57;;;6.10;99.90;;;;;;5050895;28;20167;-70
2021/11/03 05:11:42;;;;;;;0.70;0.50;;;6.20;99.90;;;;;;5055000;28;20954;-69
2021/11/03 05:14:08;;;;;;;0.80;0.80;;;6.20;99.90;;;;;;5053915;28;20449;-69
2021/11/03 05:16:34;;;;;;;4.00;0.80;;;6.20;99.90;;;;;;5054749;28;20475;-69
2021/11/03 05:19:00;;;;;;;0.70;0.50;;;6.20;99.90;;;;;;5054683;28;20691;-69
2021/11/03 05:21:26;;;;;;;0.70;0.60;;;6.20;99.90;;;;;;5052836;28;20222;-69
2021/11/03 05:23:52;;;;;;;3.03;1.27;;;6.20;99.90;;;;;;5054409;28;20444;-69
2021/11/03 05:26:22;;;;;;;0.70;0.50;;;6.20;99.90;;;;;;5054556;28;21002;-69
2021/11/03 05:28:51;;;;;;;0.70;0.50;;;6.20;99.90;;;;;;5054129;28;20478;-69
2021/11/03 05:31:16;;;;;;;0.70;0.50;;;6.20;99.90;;;;;;5055008;28;20840;-70
2021/11/03 05:33:42;;;;;;;0.83;0.83;;;6.20;99.90;;;;;;5053132;28;20432;-70
2021/11/03 05:36:12;;;;;;;0.90;0.73;;;6.20;99.90;;;;;;5054083;28;20602;-70
2021/11/03 05:38:38;;;;;;;0.70;0.53;;;6.10;99.90;;;;;;5053958;28;20194;-70
2021/11/03 05:41:03;;;;;;;0.70;0.50;;;6.10;99.90;;;;;;5053098;28;20429;-69
2021/11/03 05:43:29;;;;;;;0.70;0.53;;;6.10;99.90;;;;;;5054623;28;20182;-69
2021/11/03 05:45:55;;;;;;;0.70;0.53;;;6.10;99.90;;;;;;5053791;28;20198;-69
2021/11/03 05:48:21;;;;;;;1.33;1.13;;;6.20;99.90;;;;;;5053010;28;20195;-69
2021/11/03 05:50:47;;;;;;;0.80;0.60;;;6.20;99.90;;;;;;5054382;28;20512;-70
2021/11/03 05:53:13;;;;;;;1.13;0.87;;;6.20;99.90;;;;;;5054690;28;20405;-70
2021/11/03 05:55:39;;;;;;;1.33;1.03;;;6.20;99.90;;;;;;5054329;28;20590;-69
2021/11/03 05:58:04;;;;;;;0.80;0.70;;;6.20;99.90;;;;;;5054129;28;20590;-69
2021/11/03 06:00:34;;;;;;;0.73;0.67;;;6.20;99.90;;;;;;5053009;28;20432;-69
2021/11/03 06:03:01;;;;;;;0.70;0.50;;;6.20;99.90;;;;;;5052755;28;20656;-69
2021/11/03 06:05:26;;;;;;;2.40;1.73;;;6.10;99.90;;;;;;5053151;28;21003;-69
2021/11/03 06:08:01;;;;;;;3.73;2.03;;;6.10;99.90;;;;;;5052806;28;20453;-70
2021/11/03 06:10:37;;;;;;;3.17;2.43;;;6.10;99.90;;;;;;5050073;28;20779;-70
2021/11/03 06:13:03;;;;;;;1.33;1.23;;;6.10;99.90;;;;;;5049345;28;20486;-69
2021/11/03 06:15:33;;;;;;;0.80;0.70;;;6.10;99.90;;;;;;5052999;28;20455;-70
2021/11/03 06:17:59;;;;;;;2.43;2.30;;;6.10;99.90;;;;;;5054002;28;20444;-69
2021/11/03 06:20:26;;;;;;;1.20;0.90;;;6.10;99.90;;;;;;5053152;28;20422;-69
2021/11/03 06:22:52;;;;;;;0.73;0.67;;;6.10;99.90;;;;;;5052917;28;20421;-69
2021/11/03 06:25:19;;;;;;;0.70;0.50;;;6.20;99.90;;;;;;5053804;28;20890;-69
2021/11/03 06:27:46;;;;;;;6.43;1.93;;;6.20;99.90;;;;;;5053108;28;20844;-69
2021/11/03 06:30:17;;;;;;;4.23;0.97;;;6.20;99.90;;;;;;5053266;28;20523;-69
2021/11/03 06:32:42;;;;;;;0.70;0.47;;;6.20;99.90;;;;;;5050415;28;20430;-69
2021/11/03 06:35:09;;;;;;;0.70;0.70;;;6.20;99.90;;;;;;5045114;28;20433;-69
2021/11/03 06:37:36;;;;;;;3.33;3.03;;;6.20;99.90;;;;;;5051598;28;20202;-70
2021/11/03 06:40:03;;;;;;;0.70;0.50;;;6.20;99.90;;;;;;5050233;28;20824;-69
2021/11/03 06:42:28;;;;;;;0.97;0.67;;;6.30;99.90;;;;;;5052824;28;20802;-69
2021/11/03 06:44:54;;;;;;;2.10;0.73;;;6.30;99.90;;;;;;5051044;28;20475;-70
2021/11/03 06:47:20;;;;;;;0.80;0.70;;;6.40;99.90;;;;;;5053556;28;20210;-69
2021/11/03 06:49:46;;;;;;;2.47;2.27;;;6.40;99.90;;;;;;5053566;28;20213;-69
2021/11/03 06:52:12;;;;;;;2.70;1.10;;;6.40;99.90;;;;;;5053459;28;20445;-69
2021/11/03 06:54:38;;;;;;;0.70;0.50;;;6.40;99.90;;;;;;5051990;28;20457;-70
2021/11/03 06:57:03;;;;;;;0.70;0.50;;;6.50;99.90;;;;;;5050852;28;20514;-69
2021/11/03 06:59:29;;;;;;;2.03;1.07;;;6.50;99.90;;;;;;5052224;28;20178;-69
2021/11/03 07:01:55;;;;;;;0.90;0.70;;;6.50;99.90;;;;;;5052554;28;20182;-69
2021/11/03 07:04:21;;;;;;;0.70;0.50;;;6.50;99.90;;;;;;5053196;28;20421;-69
2021/11/03 07:06:48;;;;;;;0.70;0.63;;;6.50;99.90;;;;;;5051861;28;20207;-69
2021/11/03 07:09:13;;;;;;;0.70;0.50;;;6.60;99.90;;;;;;5049322;28;20461;-69
2021/11/03 07:11:39;;;;;;;1.23;0.70;;;6.60;99.90;;;;;;5050540;28;20491;-69
2021/11/03 07:14:06;;;;;;;1.37;1.27;;;6.60;99.90;;;;;;5051622;28;20188;-69
2021/11/03 07:16:32;;;;;;;0.70;0.50;;;6.60;99.90;;;;;;5052178;28;20432;-70
2021/11/03 07:18:58;;;;;;;0.70;0.47;;;6.70;99.90;;;;;;5052382;28;20417;-70
2021/11/03 07:21:23;;;;;;;1.10;1.00;;;6.70;99.90;;;;;;5051664;28;20436;-69
2021/11/03 07:23:49;;;;;;;0.70;0.50;;;6.70;99.90;;;;;;5052224;28;20182;-69
2021/11/03 07:26:15;;;;;;;0.77;0.73;;;6.70;99.90;;;;;;5052448;28;20210;-69
2021/11/03 07:28:41;;;;;;;2.03;1.37;;;6.80;99.90;;;;;;5051216;28;20190;-70
2021/11/03 07:31:07;;;;;;;0.70;0.50;;;6.80;99.90;;;;;;5051927;28;20425;-69
2021/11/03 07:33:34;;;;;;;0.80;0.77;;;6.90;99.90;;;;;;5051711;28;20999;-70
2021/11/03 07:36:01;;;;;;;0.70;0.50;;;6.90;99.90;;;;;;5050606;28;20802;-70
2021/11/03 07:38:27;;;;;;;0.70;0.50;;;7.00;99.90;;;;;;5051305;28;20456;-69
2021/11/03 07:40:55;;;;;;;1.33;1.17;;;7.00;99.90;;;;;;5050910;28;20926;-69
2021/11/03 07:43:24;;;;;;;0.70;0.50;;;7.10;99.90;;;;;;5048520;28;20989;-70
2021/11/03 07:45:52;;;;;;;0.70;0.60;;;7.30;99.90;;;;;;5051840;28;20557;-69
2021/11/03 07:48:20;;;;;;;4.77;2.60;;;7.30;99.90;;;;;;5051389;28;20865;-70
2021/11/03 07:50:51;;;;;;;0.70;0.50;;;7.30;99.90;;;;;;5052011;28;20437;-70
2021/11/03 07:53:17;;;;;;;0.70;0.50;;;7.30;99.90;;;;;;5053169;28;20441;-70
2021/11/03 07:55:47;;;;;;;0.70;0.50;;;7.40;99.90;;;;;;5052069;28;20421;-70
2021/11/03 07:58:20;;;;;;;2.90;1.50;;;7.50;99.90;;;;;;5051560;28;20468;-70
2021/11/03 08:00:46;;;;;;;1.10;1.00;;;7.50;99.90;;;;;;5050834;28;20461;-70
2021/11/03 08:03:11;;;;;;;0.90;0.77;;;7.60;99.90;;;;;;5051579;28;20467;-70
2021/11/03 08:05:37;;;;;;;0.70;0.50;;;7.50;99.90;;;;;;5051485;28;20190;-70
2021/11/03 08:08:08;;;;;;;0.70;0.50;;;7.60;99.90;;;;;;5051444;28;20190;-70
2021/11/03 08:10:34;;;;;;;1.27;1.17;;;7.60;99.90;;;;;;5051083;28;20170;-70
2021/11/03 08:13:00;;;;;;;0.70;0.50;;;7.60;99.90;;;;;;5049120;28;20498;-70
2021/11/03 08:15:26;;;;;;;0.80;0.70;;;7.60;99.90;;;;;;5058989;28;20425;-70
2021/11/03 08:17:54;;;;;;;0.70;0.60;;;7.60;99.90;;;;;;5050416;28;20234;-70
2021/11/03 08:20:24;;;;;;;0.70;0.50;;;7.60;99.90;;;;;;5052038;28;20985;-70
2021/11/03 08:22:50;;;;;;;0.70;0.53;;;7.60;99.90;;;;;;5051196;28;20748;-70
2021/11/03 08:25:15;;;;;;;0.70;0.50;;;7.60;99.90;;;;;;5052057;28;20420;-70
2021/11/03 08:27:41;;;;;;;0.97;0.90;;;7.60;99.90;;;;;;5050037;28;20203;-70
2021/11/03 08:30:10;;;;;;;0.70;0.60;;;7.70;99.90;;;;;;5049343;28;20179;-70
2021/11/03 08:32:41;;;;;;;0.70;0.60;;;7.70;99.90;;;;;;5041381;28;20185;-70
2021/11/03 08:35:09;;;;;;;1.80;1.70;;;7.70;99.90;;;;;;5051515;28;20413;-70
2021/11/03 08:37:37;;;;;;;0.73;0.60;;;7.70;99.90;;;;;;5050551;28;20449;-70
2021/11/03 08:40:05;;;;;;;0.70;0.50;;;7.90;99.90;;;;;;5063978;28;20429;-70
2021/11/03 08:42:31;;;;;;;0.70;0.50;;;8.00;99.90;;;;;;5049090;28;20436;-71
2021/11/03 08:44:57;;;;;;;0.70;0.70;;;8.00;99.90;;;;;;5049988;28;20794;-70
2021/11/03 08:47:23;;;;;;;0.80;0.80;;;8.10;99.90;;;;;;5050875;28;20206;-70
2021/11/03 08:49:50;;;;;;;0.70;0.50;;;8.20;99.90;;;;;;5051415;28;20174;-70
2021/11/03 08:52:17;;;;;;;0.70;0.50;;;8.20;99.90;;;;;;5052045;28;20417;-70
2021/11/03 08:54:45;;;;;;;0.80;0.67;;;8.30;99.90;;;;;;5051436;28;20764;-70
2021/11/03 08:57:11;;;;;;;0.90;0.80;;;8.40;99.90;;;;;;5049860;28;20469;-69
2021/11/03 08:59:37;;;;;;;1.13;1.00;;;8.30;99.90;;;;;;5051396;28;20447;-70
2021/11/03 09:02:03;;;;;;;3.93;1.73;;;8.50;99.90;;;;;;5051483;28;20437;-70
2021/11/03 09:04:31;;;;;;;1.93;1.07;;;8.50;99.90;;;;;;5046947;28;20178;-70
2021/11/03 09:06:57;;;;;;;0.70;0.70;;;8.60;99.90;;;;;;5048427;28;20824;-70
2021/11/03 09:09:23;;;;;;;0.70;0.50;;;8.70;99.90;;;;;;5048869;28;20424;-70
2021/11/03 09:11:51;;;;;;;0.70;0.50;;;8.60;99.90;;;;;;5047539;28;21010;-70
2021/11/03 09:14:20;;;;;;;1.10;1.03;;;8.70;99.90;;;;;;5050036;28;20179;-70
2021/11/03 09:16:47;;;;;;;1.60;0.70;;;8.70;99.90;;;;;;5050545;28;20464;-71
2021/11/03 09:19:12;;;;;;;0.77;0.60;;;8.70;99.90;;;;;;5051635;28;20504;-70
2021/11/03 09:21:38;;;;;;;0.70;0.60;;;8.70;99.90;;;;;;5051043;28;20556;-70
2021/11/03 09:24:04;;;;;;;1.67;0.80;;;8.80;99.90;;;;;;5048022;28;20531;-70
2021/11/03 09:26:29;;;;;;;0.70;0.50;;;8.80;99.90;;;;;;5049251;28;20210;-70
2021/11/03 09:28:58;;;;;;;0.70;0.50;;;8.90;99.90;;;;;;5065500;28;21069;-70
2021/11/03 09:31:24;;;;;;;1.17;1.07;;;8.90;99.90;;;;;;5049878;28;20163;-70
2021/11/03 09:33:50;;;;;;;0.70;0.50;;;8.90;99.90;;;;;;5051458;28;20520;-70
2021/11/03 09:36:19;;;;;;;0.93;0.87;;;9.00;99.90;;;;;;5054222;28;20989;-70
2021/11/03 09:38:45;;;;;;;0.70;0.50;;;9.00;99.90;;;;;;5051428;28;20210;-70
2021/11/03 09:41:11;;;;;;;0.70;0.60;;;9.10;99.90;;;;;;5054665;28;20444;-70
2021/11/03 09:43:41;;;;;;;0.80;0.73;;;9.10;99.90;;;;;;5054139;28;20459;-70
2021/11/03 09:46:24;;;;;;;1.37;1.13;;;9.10;99.90;;;;;;5051723;28;20233;-70
2021/11/03 09:49:10;;;;;;;1.17;1.07;;;9.10;99.90;;;;;;5053880;28;20951;-70
2021/11/03 09:51:37;;;;;;;0.70;0.50;;;9.10;99.90;;;;;;5053700;28;20429;-70
2021/11/03 09:54:07;;;;;;;1.47;0.70;;;9.10;99.90;;;;;;5054231;28;20547;-70
2021/11/03 09:56:40;;;;;;;2.00;1.90;;;9.10;99.90;;;;;;5054317;28;20490;-70
2021/11/03 09:59:40;;;;;;;1.13;0.70;;;9.00;99.90;;;;;;5053849;28;20429;-71
2021/11/03 10:02:33;;;;;;;0.90;0.90;;;9.00;99.90;;;;;;5053879;28;20437;-70
2021/11/03 10:05:13;;;;;;;1.07;1.00;;;8.90;99.90;;;;;;5053318;28;20516;-70
2021/11/03 10:07:38;;;;;;;4.13;1.30;;;9.00;99.90;;;;;;5048138;28;20865;-70
2021/11/03 10:10:10;;;;;;;0.70;0.60;;;9.00;99.90;;;;;;5051118;28;20486;-70
2021/11/03 10:12:36;;;;;;;0.70;0.60;;;9.00;99.90;;;;;;5052447;28;20217;-70
2021/11/03 10:15:01;;;;;;;1.03;0.60;;;9.00;99.90;;;;;;5053211;28;20937;-70
2021/11/03 10:17:30;;;;;;;0.70;0.50;;;9.10;99.90;;;;;;5053765;28;20247;-70
2021/11/03 10:19:57;;;;;;;2.30;0.90;;;9.10;99.90;;;;;;5051619;28;20228;-70
2021/11/03 10:22:36;;;;;;;0.90;0.70;;;9.10;99.90;;;;;;5053372;28;20429;-70
2021/11/03 10:25:15;;;;;;;0.90;0.50;;;9.10;99.90;;;;;;5051447;28;20468;-70
2021/11/03 10:27:44;;;;;;;0.70;0.50;;;9.10;99.90;;;;;;5053080;28;20472;-71
2021/11/03 10:30:47;;;;;;;2.30;1.17;;;9.10;99.90;;;;;;5053867;28;20418;-70
2021/11/03 10:33:36;;;;;;;1.07;0.97;;;9.10;99.90;;;;;;5052808;28;20428;-70
2021/11/03 10:36:20;;;;;;;0.87;0.73;;;9.10;99.90;;;;;;5045365;28;20926;-70
2021/11/03 10:38:57;;;;;;;1.90;0.70;;;9.10;99.90;;;;;;5050011;28;20428;-70
2021/11/03 10:41:31;;;;;;;2.70;2.10;;;9.10;99.90;;;;;;5053775;28;20428;-70
2021/11/03 10:44:11;;;;;;;0.80;0.80;;;9.10;99.90;;;;;;5052343;28;20487;-70
2021/11/03 10:46:53;;;;;;;1.00;0.90;;;9.10;99.90;;;;;;5052184;28;20461;-70
2021/11/03 10:49:31;;;;;;;0.90;0.70;;;9.10;99.90;;;;;;5050633;28;20421;-70
2021/11/03 10:52:41;;;;;;;0.70;0.60;;;9.10;99.90;;;;;;5052714;28;20453;-70
2021/11/03 10:55:26;;;;;;;2.43;2.20;;;9.10;99.90;;;;;;5037409;28;20421;-70
2021/11/03 10:58:00;;;;;;;3.33;1.37;;;9.00;99.90;;;;;;5052013;28;20880;-70
2021/11/03 11:00:33;;;;;;;0.70;0.60;;;9.10;99.90;;;;;;5052703;28;20420;-70
2021/11/03 11:03:04;;;;;;;0.80;0.70;;;9.10;99.90;;;;;;5053180;28;20417;-70
2021/11/03 11:05:32;;;;;;;0.93;0.90;;;9.00;99.90;;;;;;5053273;28;20918;-70
2021/11/03 11:08:05;;;;;;;0.70;0.50;;;9.00;99.90;;;;;;5049310;28;20849;-70
2021/11/03 11:10:36;;;;;;;0.70;0.50;;;9.00;99.90;;;;;;5053548;28;20927;-70
2021/11/03 11:13:03;;;;;;;7.23;1.03;;;9.00;99.90;;;;;;5051151;28;20463;-70
2021/11/03 11:15:37;;;;;;;1.20;1.10;;;9.00;99.90;;;;;;5050620;28;20470;-70
2021/11/03 11:18:31;;;;;;;0.80;0.60;;;8.90;99.90;;;;;;5049361;28;20448;-70
2021/11/03 11:21:01;;;;;;;2.40;2.30;;;8.90;99.90;;;;;;5052199;28;20433;-70
2021/11/03 11:23:42;;;;;;;1.47;1.17;;;8.90;99.90;;;;;;5052262;28;20422;-70
2021/11/03 11:26:23;;;;;;;0.70;0.50;;;8.90;99.90;;;;;;5052787;28;20961;-70
2021/11/03 11:28:51;;;;;;;1.13;0.80;;;9.00;99.90;;;;;;5052220;28;20595;-70
2021/11/03 11:31:32;;;;;;;2.10;2.00;;;8.90;99.90;;;;;;5046543;28;20897;-70
2021/11/03 11:34:16;;;;;;;0.97;0.87;;;9.00;99.90;;;;;;5052728;28;20413;-71
2021/11/03 11:37:03;;;;;;;0.70;0.50;;;9.00;99.90;;;;;;5052494;28;20424;-71
2021/11/03 11:39:42;;;;;;;1.43;0.83;;;9.00;99.90;;;;;;5049595;28;20457;-70
2021/11/03 11:42:17;;;;;;;0.90;0.60;;;9.00;99.90;;;;;;5045094;28;20443;-70
2021/11/03 11:45:06;;;;;;;0.70;0.60;;;9.00;99.90;;;;;;5052675;28;20409;-70
2021/11/03 11:47:42;;;;;;;0.73;0.53;;;9.00;99.90;;;;;;5052810;28;20463;-70
2021/11/03 11:50:39;;;;;;;0.70;0.50;;;9.10;99.90;;;;;;5051472;28;20761;-70
2021/11/03 11:53:46;;;;;;;0.70;0.60;;;9.00;99.90;;;;;;5036926;28;20440;-70
2021/11/03 11:56:15;;;;;;;0.73;0.57;;;9.00;99.90;;;;;;4968433;28;20440;-70
2021/11/03 11:58:49;;;;;;;0.70;0.50;;;8.90;99.90;;;;;;5031703;28;20460;-70
2021/11/03 12:01:14;;;;;;;1.47;1.03;;;8.90;99.90;;;;;;5042764;28;20975;-70
2021/11/03 12:03:50;;;;;;;0.70;0.50;;;8.90;99.90;;;;;;5044734;28;20430;-70
2021/11/03 12:06:16;;;;;;;1.07;0.80;;;8.90;99.90;;;;;;5051762;28;20293;-70
2021/11/03 12:09:16;;;;;;;0.70;0.50;;;8.90;99.90;;;;;;5046754;28;20504;-71
2021/11/03 12:12:00;;;;;;;0.70;0.50;;;8.90;99.90;;;;;;5046123;28;20327;-70
2021/11/03 12:14:33;;;;;;;0.70;0.50;;;8.90;99.90;;;;;;5044990;28;20528;-70
2021/11/03 12:17:17;;;;;;;0.70;0.60;;;9.00;99.90;;;;;;5056380;28;20451;-71
2021/11/03 12:19:49;;;;;;;0.70;0.70;;;9.00;99.90;;;;;;5045304;28;20510;-71
2021/11/03 12:22:30;;;;;;;2.43;2.33;;;9.00;99.90;;;;;;5057561;28;20436;-71
2021/11/03 12:25:14;;;;;;;1.10;1.00;;;9.00;99.90;;;;;;5032147;28;20398;-71
2021/11/03 12:27:40;;;;;;;1.77;1.67;;;9.10;99.90;;;;;;5039250;28;20457;-71
2021/11/03 12:30:09;;;;;;;1.03;0.90;;;9.10;99.90;;;;;;5051639;28;20409;-70
2021/11/03 12:32:43;;;;;;;7.50;2.00;;;9.10;99.90;;;;;;5032056;28;20390;-70
2021/11/03 12:35:18;;;;;;;1.00;0.60;;;9.10;99.90;;;;;;5043312;28;20775;-70
2021/11/03 12:37:55;;;;;;;0.70;0.60;;;9.00;99.90;;;;;;5046893;28;20502;-70
2021/11/03 12:40:31;;;;;;;1.70;0.97;;;9.00;99.90;;;;;;5045282;28;20956;-70
2021/11/03 12:43:03;;;;;;;0.70;0.50;;;9.10;99.90;;;;;;5043484;28;20421;-70
2021/11/03 12:45:39;;;;;;;1.47;1.37;;;9.10;99.90;;;;;;5042158;28;20511;-71
2021/11/03 12:48:19;;;;;;;1.77;1.67;;;9.10;99.90;;;;;;5041139;28;20611;-70
2021/11/03 12:50:46;;;;;;;7.93;1.63;;;9.10;99.90;;;;;;5046944;28;20414;-70
2021/11/03 12:53:14;;;;;;;0.87;0.63;;;9.20;99.90;;;;;;5051293;28;20422;-70
2021/11/03 12:55:51;;;;;;;1.10;0.90;;;9.20;99.90;;;;;;5050249;28;20405;-70
2021/11/03 12:58:32;;;;;;;1.80;1.20;;;9.30;99.90;;;;;;5051090;28;20456;-70
2021/11/03 13:01:00;;;;;;;0.70;0.70;;;9.50;99.90;;;;;;5051086;28;21003;-70
2021/11/03 13:03:29;;;;;;;2.10;2.00;;;9.70;99.90;;;;;;5050540;28;20832;-70
2021/11/03 13:05:57;;;;;;;1.17;1.07;;;9.90;99.90;;;;;;5048473;28;20449;-70
2021/11/03 13:08:27;;;;;;;0.80;0.60;;;10.10;99.90;;;;;;5049445;28;20476;-71
2021/11/03 13:11:03;;;;;;;0.70;0.60;;;10.30;99.90;;;;;;5053439;28;20431;-70